Huvudsida
METAR-TAF:

METAR-TAF

Flygplatser :

Moss flygplats. Rygge

Rygge, Norge

latitud: 59-23N, longitud: 010-47E, höjd: 5 m

Aktuellt väderrapport

Denna rapport gjordes för 25 minuter sedan, klockan 00:20 UTC
Vind 12 kt från syd/sydväst
Temperatur 9°C
Fuktighet 93%
Tryck 1021 hPa
Sikt: 3900 m
tungt duggregn

METAR: ENRY 150020Z AUTO 20012KT 3900NDV +DZ OVC002/// 09/08 Q1021 REDZ

Tid: 01:45 (00:45 UTC)

Väderprognos

Prognos gäller från 15 kl. 00 UTC till 15 kl. 24 UTC
Vind 12 kt från syd/sydväst
Sikt: 5000 m
Brutna moln på en höjd av 500 ft
lätt duggregn
Temporärt
från 15 kl. 00 UTC till 15 kl. 03 UTC
Sikt: 2000 m
Mulet på en höjd av 300 ft
regn, duggregn, fuktdis
Sannolikhet 40%
från 15 kl. 03 UTC till 15 kl. 10 UTC
Sikt: 0300 m
på en höjd av 100 ft
dimma
Blir
från 15 kl. 18 UTC till 15 kl. 21 UTC
Brutna moln på en höjd av 1200 ft

TAF: ENRY 1500/1524 20012KT 5000 -DZ BKN005 TEMPO 1500/1503 2000 RADZ BR OVC003 PROB40 1503/1510 0300 FG VV001 BECMG 1518/1521 BKN012

Aktuella väderrapporter och prognoser från 4000 flygplatser (METAR- och TAF-rapporter).

De tillgängliga stationerna syns som gula och röda prickar på kartan.

För musen över prickarna för att se namnen på stationerna.

Klicka sedan för att få väderrapporter och prognoser.

För att ändra kartan: Klicka på de gröna knapparna med ett svart kors på för att zooma in; den gröna knappen med ett streck på för att zooma ut; eller på de gröna pilarna för angränsande kartor.


METAR-TAF: